Terminal Aerodrome Forecast
Issued by NWS

Home | Current Version | Previous Version | Text Only | Print | Product List | Glossary Off
Versions: 1 2 3 4 5 6 7 8 9 10 11 12 13 14 15 16 17

899
FTUS43 KFGF 211722
TAFBJI
TAF
KBJI 211722Z 2118/2218 34013KT P6SM FEW140
     FM220200 03006KT P6SM SKC
     FM220700 10004KT P6SM FEW250
     FM221400 14008KT P6SM SCT200=

USA.gov is the U.S. government's official web portal to all federal, state and local government web resources and services.